createdAt,value
2022-12-24T00:01:04.562Z,64.70
2022-12-24T00:03:32.521Z,65.00
2022-12-24T00:06:00.568Z,65.10
2022-12-24T00:08:28.413Z,65.10
2022-12-24T00:10:56.268Z,65.20
2022-12-24T00:13:24.177Z,65.20
2022-12-24T00:15:52.085Z,65.20
2022-12-24T00:18:21.321Z,65.30
2022-12-24T00:20:49.330Z,65.30
2022-12-24T00:23:17.299Z,65.30
2022-12-24T00:25:45.299Z,65.30
2022-12-24T00:28:13.422Z,65.50
2022-12-24T00:30:41.347Z,65.50
2022-12-24T00:33:09.308Z,65.60
2022-12-24T00:35:38.831Z,65.50
2022-12-24T00:38:06.775Z,65.60
2022-12-24T00:40:35.112Z,65.50
2022-12-24T00:43:03.041Z,65.40
2022-12-24T00:45:30.903Z,65.40
2022-12-24T00:47:58.880Z,65.40
2022-12-24T00:50:26.766Z,65.30
2022-12-24T00:52:55.979Z,65.10
2022-12-24T00:55:23.851Z,65.00
2022-12-24T00:57:51.697Z,65.00
2022-12-24T01:00:20.160Z,65.10
2022-12-24T01:02:48.179Z,65.00
2022-12-24T01:05:15.280Z,65.10
2022-12-24T01:07:44.462Z,64.90
2022-12-24T01:10:14.841Z,65.00
2022-12-24T01:12:42.811Z,64.90
2022-12-24T01:15:11.353Z,64.90
2022-12-24T01:17:39.245Z,64.80
2022-12-24T01:20:10.076Z,64.70
2022-12-24T01:22:37.986Z,64.70
2022-12-24T01:25:06.716Z,64.60
2022-12-24T01:27:35.891Z,64.60
2022-12-24T01:30:03.794Z,64.50
2022-12-24T01:32:31.803Z,65.30
2022-12-24T01:34:59.894Z,64.40
2022-12-24T01:37:27.841Z,64.20
2022-12-24T01:40:16.696Z,64.10
2022-12-24T01:43:05.485Z,65.00
2022-12-24T01:45:45.327Z,64.00
2022-12-24T01:48:20.629Z,63.70
2022-12-24T01:50:48.568Z,63.60
2022-12-24T01:53:16.538Z,63.30
2022-12-24T01:55:44.759Z,63.10
2022-12-24T01:58:14.099Z,63.10
2022-12-24T02:00:41.911Z,63.00
2022-12-24T02:03:09.826Z,62.80
2022-12-24T02:05:40.154Z,62.50
2022-12-24T02:08:08.453Z,62.40
2022-12-24T02:10:36.355Z,62.20
2022-12-24T02:13:04.330Z,61.80
2022-12-24T02:15:36.152Z,61.80
2022-12-24T02:18:06.292Z,61.60
2022-12-24T02:20:48.064Z,61.30
2022-12-24T02:23:29.329Z,61.00
2022-12-24T02:26:04.091Z,60.80
2022-12-24T02:28:43.883Z,60.50
2022-12-24T02:31:14.869Z,60.30
2022-12-24T02:33:44.909Z,60.30
2022-12-24T02:36:14.168Z,60.00
2022-12-24T02:38:43.744Z,60.40
2022-12-24T02:41:15.063Z,60.70
2022-12-24T02:43:44.988Z,60.80
2022-12-24T02:46:15.490Z,60.90
2022-12-24T02:48:43.778Z,61.00
2022-12-24T02:51:11.887Z,61.10
2022-12-24T02:53:39.764Z,61.00
2022-12-24T02:56:41.805Z,61.10
2022-12-24T02:59:26.914Z,61.20
2022-12-24T03:01:59.544Z,61.20
2022-12-24T03:04:40.228Z,61.30
2022-12-24T03:07:13.697Z,61.30
2022-12-24T03:09:51.450Z,61.60
2022-12-24T03:12:21.656Z,61.40
2022-12-24T03:14:49.544Z,61.60
2022-12-24T03:17:19.006Z,61.70
2022-12-24T03:19:47.077Z,61.60
2022-12-24T03:22:15.202Z,61.70
2022-12-24T03:24:43.039Z,61.70
2022-12-24T03:27:10.889Z,61.80
2022-12-24T03:29:40.058Z,62.00
2022-12-24T03:32:08.028Z,61.70
2022-12-24T03:34:37.259Z,61.80
2022-12-24T03:37:05.109Z,61.80
2022-12-24T03:39:33.045Z,61.70
2022-12-24T03:42:00.880Z,61.80
2022-12-24T03:44:28.747Z,61.70
2022-12-24T03:46:56.666Z,61.50
2022-12-24T03:49:24.495Z,61.60
2022-12-24T03:51:53.705Z,61.30
2022-12-24T03:54:21.577Z,61.30
2022-12-24T03:56:49.933Z,61.30
2022-12-24T03:59:17.777Z,61.20
2022-12-24T04:01:45.817Z,61.20
2022-12-24T04:04:13.681Z,61.20
2022-12-24T04:06:41.529Z,61.20
2022-12-24T04:09:11.617Z,61.00
2022-12-24T04:11:39.499Z,60.80
2022-12-24T04:14:07.355Z,60.80
2022-12-24T04:16:35.299Z,60.80
2022-12-24T04:19:03.247Z,60.60
2022-12-24T04:21:31.111Z,60.50
2022-12-24T04:23:59.028Z,60.30
2022-12-24T04:26:28.223Z,61.10
2022-12-24T04:28:56.064Z,60.20
2022-12-24T04:31:23.978Z,60.00
2022-12-24T04:33:52.580Z,60.00
2022-12-24T04:36:20.639Z,59.80
2022-12-24T04:38:48.848Z,59.60
2022-12-24T04:41:23.089Z,59.50
2022-12-24T04:43:54.201Z,59.10
2022-12-24T04:46:23.934Z,59.10
2022-12-24T04:48:52.954Z,59.00
2022-12-24T04:51:21.131Z,58.80
2022-12-24T04:53:49.137Z,58.60
2022-12-24T04:56:18.135Z,58.40
2022-12-24T04:58:46.128Z,58.00
2022-12-24T05:01:16.328Z,57.70
2022-12-24T05:03:44.473Z,57.70
2022-12-24T05:06:13.512Z,58.00
2022-12-24T05:08:41.473Z,58.60
2022-12-24T05:11:09.355Z,58.60
2022-12-24T05:13:46.051Z,58.70
2022-12-24T05:16:16.297Z,58.90
2022-12-24T05:18:44.198Z,59.20
2022-12-24T05:21:12.449Z,59.40
2022-12-24T05:23:58.076Z,59.60
2022-12-24T05:26:30.192Z,59.80
2022-12-24T05:28:58.993Z,60.00
2022-12-24T05:31:29.047Z,60.10
2022-12-24T05:33:56.943Z,60.30
2022-12-24T05:36:25.212Z,60.30
2022-12-24T05:38:53.205Z,60.60
2022-12-24T05:41:21.047Z,60.70
2022-12-24T05:43:48.866Z,60.70
2022-12-24T05:46:18.734Z,60.80
2022-12-24T05:48:48.348Z,61.00
2022-12-24T05:51:19.470Z,61.30
2022-12-24T05:53:47.679Z,61.30
2022-12-24T05:56:16.958Z,61.30
2022-12-24T05:58:45.017Z,61.30
2022-12-24T06:01:13.002Z,61.40
2022-12-24T06:03:41.071Z,61.60
2022-12-24T06:06:11.195Z,61.40
2022-12-24T06:08:39.441Z,61.70
2022-12-24T06:11:08.638Z,61.50
2022-12-24T06:13:36.617Z,61.70
2022-12-24T06:16:05.751Z,61.60
2022-12-24T06:18:34.373Z,61.70
2022-12-24T06:21:02.231Z,61.60
2022-12-24T06:23:32.219Z,61.70
2022-12-24T06:26:00.978Z,62.60
2022-12-24T06:28:29.004Z,61.70
2022-12-24T06:31:02.423Z,61.50
2022-12-24T06:33:31.082Z,61.60
2022-12-24T06:35:58.975Z,61.70
2022-12-24T06:38:26.825Z,61.60
2022-12-24T06:40:56.261Z,61.80
2022-12-24T06:43:24.133Z,61.80
2022-12-24T06:45:51.953Z,61.80
2022-12-24T06:48:19.822Z,61.90
2022-12-24T06:50:47.736Z,61.80
2022-12-24T06:53:15.620Z,61.70
2022-12-24T06:55:43.560Z,61.60
2022-12-24T06:58:12.863Z,61.80
2022-12-24T07:00:40.748Z,61.70
2022-12-24T07:03:08.624Z,61.60
2022-12-24T07:05:36.501Z,61.70
2022-12-24T07:08:04.504Z,61.70
2022-12-24T07:10:32.319Z,61.70
2022-12-24T07:13:00.152Z,61.80
2022-12-24T07:15:29.355Z,61.80
2022-12-24T07:17:57.187Z,61.80
2022-12-24T07:20:25.045Z,61.80
2022-12-24T07:22:52.909Z,61.80
2022-12-24T07:25:20.816Z,61.80
2022-12-24T07:27:48.677Z,61.70
2022-12-24T07:30:16.945Z,61.70
2022-12-24T07:32:46.167Z,61.70
2022-12-24T07:35:13.998Z,61.70
2022-12-24T07:37:41.863Z,61.80
2022-12-24T07:40:10.908Z,61.80
2022-12-24T07:42:38.771Z,61.80
2022-12-24T07:45:07.902Z,61.80
2022-12-24T07:47:35.936Z,61.80
2022-12-24T07:50:05.559Z,61.70
2022-12-24T07:52:33.453Z,62.30
2022-12-24T07:55:01.317Z,61.90
2022-12-24T07:57:29.211Z,61.90
2022-12-24T07:59:57.083Z,61.90
2022-12-24T08:02:25.092Z,61.90
2022-12-24T08:04:53.148Z,61.80
2022-12-24T08:07:22.363Z,61.80
2022-12-24T08:09:50.206Z,62.00
2022-12-24T08:12:18.084Z,62.10
2022-12-24T08:14:45.929Z,61.90
2022-12-24T08:17:13.798Z,61.90
2022-12-24T08:19:41.655Z,61.80
2022-12-24T08:22:09.533Z,61.90
2022-12-24T08:24:38.737Z,61.70
2022-12-24T08:27:06.657Z,61.70
2022-12-24T08:29:34.516Z,61.70
2022-12-24T08:32:02.412Z,62.80
2022-12-24T08:34:30.331Z,61.70
2022-12-24T08:36:58.266Z,61.60
2022-12-24T08:39:26.254Z,61.70
2022-12-24T08:41:55.462Z,62.00
2022-12-24T08:44:23.360Z,62.10
2022-12-24T08:46:51.214Z,62.00
2022-12-24T08:49:19.081Z,62.30
2022-12-24T08:51:46.938Z,62.20
2022-12-24T08:54:14.841Z,62.20
2022-12-24T08:56:42.772Z,62.40
2022-12-24T08:59:12.626Z,62.50
2022-12-24T09:01:40.590Z,62.10
2022-12-24T09:04:09.736Z,62.20
2022-12-24T09:06:37.626Z,62.40
2022-12-24T09:09:05.971Z,62.60
2022-12-24T09:11:35.241Z,62.40
2022-12-24T09:14:03.329Z,62.60
2022-12-24T09:16:32.640Z,62.90
2022-12-24T09:19:00.731Z,63.00
2022-12-24T09:21:28.639Z,63.10
2022-12-24T09:23:56.541Z,63.00
2022-12-24T09:26:25.681Z,63.00
2022-12-24T09:28:53.729Z,62.70
2022-12-24T09:31:21.864Z,62.80
2022-12-24T09:33:51.437Z,62.60
2022-12-24T09:36:19.366Z,62.50
2022-12-24T09:38:47.272Z,62.60
2022-12-24T09:41:16.233Z,62.70
2022-12-24T09:43:47.004Z,62.70
2022-12-24T09:46:17.542Z,62.60
2022-12-24T09:48:47.607Z,62.60
2022-12-24T09:51:20.145Z,62.60
2022-12-24T09:53:49.683Z,62.60
2022-12-24T09:56:19.297Z,62.60
2022-12-24T09:58:49.504Z,62.50
2022-12-24T10:01:18.325Z,62.40
2022-12-24T10:03:46.521Z,62.40
2022-12-24T10:06:17.163Z,62.40
2022-12-24T10:08:52.101Z,62.50
2022-12-24T10:11:23.889Z,62.50
2022-12-24T10:14:02.954Z,63.50
2022-12-24T10:16:38.242Z,63.70
2022-12-24T10:19:13.138Z,62.80
2022-12-24T10:21:45.520Z,63.90
2022-12-24T10:24:15.485Z,63.10
2022-12-24T10:26:45.823Z,63.10
2022-12-24T10:29:15.874Z,63.40
2022-12-24T10:31:50.168Z,63.30
2022-12-24T10:34:20.854Z,63.80
2022-12-24T10:38:44.309Z,63.80
2022-12-24T10:41:12.276Z,65.20
2022-12-24T10:43:40.829Z,64.80
2022-12-24T10:46:18.900Z,65.90
2022-12-24T10:48:51.008Z,64.90
2022-12-24T10:51:21.804Z,65.20
2022-12-24T10:53:53.006Z,65.00
2022-12-24T10:56:20.943Z,65.20
2022-12-24T10:58:52.871Z,65.30
2022-12-24T11:01:21.015Z,65.30
2022-12-24T11:04:01.016Z,65.20
2022-12-24T11:06:28.876Z,65.10
2022-12-24T11:08:58.090Z,65.10
2022-12-24T11:11:25.959Z,65.00
2022-12-24T11:13:56.170Z,65.00
2022-12-24T11:16:27.302Z,65.10
2022-12-24T11:18:55.786Z,65.10
2022-12-24T11:21:24.816Z,65.30
2022-12-24T11:23:58.018Z,65.50
2022-12-24T11:26:27.064Z,65.10
2022-12-24T11:29:22.576Z,65.30
2022-12-24T11:31:50.558Z,66.40
2022-12-24T11:34:24.186Z,65.20
2022-12-24T11:36:52.203Z,65.00
2022-12-24T11:39:22.861Z,64.80
2022-12-24T11:41:51.327Z,64.90
2022-12-24T11:44:25.447Z,65.30
2022-12-24T11:46:56.695Z,65.00
2022-12-24T11:49:26.108Z,64.80
2022-12-24T11:52:17.915Z,64.80
2022-12-24T11:54:52.639Z,65.00
2022-12-24T11:57:21.203Z,64.80
2022-12-24T11:59:49.380Z,64.90
2022-12-24T12:02:20.186Z,65.00
2022-12-24T12:04:49.675Z,66.00
2022-12-24T12:07:19.355Z,65.10
2022-12-24T12:09:50.146Z,65.00
2022-12-24T12:12:20.198Z,64.90
2022-12-24T12:14:50.210Z,64.80
2022-12-24T12:17:23.720Z,64.80
2022-12-24T12:19:54.291Z,64.60
2022-12-24T12:22:25.565Z,64.50
2022-12-24T12:24:55.858Z,64.40
2022-12-24T12:27:28.498Z,64.40
2022-12-24T12:29:58.335Z,64.40
2022-12-24T12:32:28.718Z,64.30
2022-12-24T12:35:04.057Z,65.20
2022-12-24T12:37:33.818Z,64.10
2022-12-24T12:40:03.225Z,64.20
2022-12-24T12:42:32.491Z,64.10
2022-12-24T12:45:23.180Z,64.00
2022-12-24T12:47:59.140Z,64.00
2022-12-24T12:50:29.467Z,63.90
2022-12-24T12:53:27.992Z,63.90
2022-12-24T12:56:01.088Z,63.90
2022-12-24T12:58:33.150Z,63.80
2022-12-24T13:01:03.021Z,63.80
2022-12-24T13:03:49.265Z,63.70
2022-12-24T13:06:54.630Z,63.80
2022-12-24T13:09:39.897Z,63.70
2022-12-24T13:12:28.509Z,63.60
2022-12-24T13:15:20.765Z,63.60
2022-12-24T13:18:14.023Z,63.60
2022-12-24T13:20:42.987Z,63.50
2022-12-24T13:23:13.471Z,63.50
2022-12-24T13:25:42.534Z,63.50
2022-12-24T13:28:18.842Z,63.50
2022-12-24T13:30:46.717Z,63.50
2022-12-24T13:33:14.924Z,63.40
2022-12-24T13:35:59.504Z,63.40
2022-12-24T13:38:35.134Z,63.40
2022-12-24T13:41:47.918Z,63.40
2022-12-24T13:44:19.007Z,63.30
2022-12-24T13:46:59.681Z,63.20
2022-12-24T13:49:32.897Z,63.20
2022-12-24T13:52:22.545Z,63.10
2022-12-24T13:55:07.020Z,63.10
2022-12-24T13:57:39.585Z,63.00
2022-12-24T14:00:23.995Z,63.00
2022-12-24T14:02:53.497Z,63.00
2022-12-24T14:05:25.191Z,62.90
2022-12-24T14:07:53.171Z,62.80
2022-12-24T14:10:22.995Z,62.80
2022-12-24T14:12:51.166Z,62.90
2022-12-24T14:16:06.740Z,62.70
2022-12-24T14:18:38.770Z,63.20
2022-12-24T14:21:07.073Z,62.60
2022-12-24T14:23:39.413Z,62.50
2022-12-24T14:26:09.220Z,62.50
2022-12-24T14:28:40.425Z,62.50
2022-12-24T14:31:14.895Z,62.40
2022-12-24T14:33:44.169Z,62.40
2022-12-24T14:36:13.788Z,62.20
2022-12-24T14:38:42.485Z,62.20
2022-12-24T14:41:25.917Z,62.20
2022-12-24T14:43:58.266Z,62.10
2022-12-24T14:46:28.734Z,62.00
2022-12-24T14:48:59.938Z,62.00
2022-12-24T14:51:32.192Z,62.00
2022-12-24T14:54:25.139Z,62.00
2022-12-24T14:57:11.517Z,61.90
2022-12-24T14:59:42.875Z,61.80
2022-12-24T15:02:44.619Z,61.90
2022-12-24T15:05:15.790Z,63.00
2022-12-24T15:07:47.696Z,61.70
2022-12-24T15:10:30.273Z,61.80
2022-12-24T15:12:59.128Z,61.70
2022-12-24T15:15:27.078Z,61.60
2022-12-24T15:17:55.039Z,61.60
2022-12-24T15:20:25.811Z,61.60
2022-12-24T15:22:54.983Z,61.50
2022-12-24T15:25:24.846Z,61.50
2022-12-24T15:27:52.755Z,61.50
2022-12-24T15:30:21.792Z,61.40
2022-12-24T15:32:51.299Z,61.40
2022-12-24T15:35:44.996Z,61.40
2022-12-24T15:38:26.193Z,61.40
2022-12-24T15:40:54.473Z,61.30
2022-12-24T15:43:22.347Z,61.30
2022-12-24T15:45:50.229Z,61.30
2022-12-24T15:48:23.496Z,61.20
2022-12-24T15:50:53.881Z,61.20
2022-12-24T15:53:25.427Z,61.20
2022-12-24T15:56:04.925Z,61.20
2022-12-24T15:58:33.669Z,61.20
2022-12-24T16:01:20.361Z,61.10
2022-12-24T16:03:56.642Z,61.20
2022-12-24T16:06:27.473Z,61.10
2022-12-24T16:08:56.335Z,61.10
2022-12-24T16:11:24.966Z,61.10
2022-12-24T16:14:04.930Z,61.10
2022-12-24T16:16:37.485Z,61.10
2022-12-24T16:19:06.935Z,61.10
2022-12-24T16:21:37.106Z,61.10
2022-12-24T16:24:07.173Z,61.10
2022-12-24T16:26:35.174Z,61.10
2022-12-24T16:29:03.261Z,61.00
2022-12-24T16:31:32.718Z,61.00
2022-12-24T16:34:01.125Z,61.00
2022-12-24T16:36:29.226Z,60.90
2022-12-24T16:39:16.734Z,60.90
2022-12-24T16:42:02.333Z,60.90
2022-12-24T16:44:30.312Z,60.80
2022-12-24T16:46:58.185Z,60.80
2022-12-24T16:49:26.013Z,60.80
2022-12-24T16:51:53.969Z,60.70
2022-12-24T16:54:23.178Z,61.60
2022-12-24T16:56:51.058Z,60.60
2022-12-24T16:59:19.411Z,60.50
2022-12-24T17:01:47.467Z,60.50
2022-12-24T17:04:15.694Z,60.50
2022-12-24T17:06:43.544Z,61.40
2022-12-24T17:09:12.017Z,60.40
2022-12-24T17:11:41.284Z,60.30
2022-12-24T17:14:11.469Z,60.30
2022-12-24T17:16:41.426Z,60.30
2022-12-24T17:19:09.268Z,60.20
2022-12-24T17:21:37.245Z,60.20
2022-12-24T17:24:05.510Z,60.10
2022-12-24T17:26:33.357Z,60.10
2022-12-24T17:29:05.141Z,60.10
2022-12-24T17:31:33.314Z,60.10
2022-12-24T17:34:01.345Z,60.10
2022-12-24T17:36:29.212Z,60.10
2022-12-24T17:38:57.090Z,60.00
2022-12-24T17:41:25.031Z,60.10
2022-12-24T17:43:52.924Z,60.00
2022-12-24T17:46:23.342Z,60.00
2022-12-24T17:48:51.311Z,60.00
2022-12-24T17:51:20.242Z,59.90
2022-12-24T17:53:48.269Z,60.00
2022-12-24T17:56:16.430Z,59.90
2022-12-24T17:58:45.076Z,59.90
2022-12-24T18:01:13.301Z,59.90
2022-12-24T18:03:42.950Z,59.80
2022-12-24T18:06:11.362Z,59.80
2022-12-24T18:08:39.525Z,59.80
2022-12-24T18:11:13.973Z,59.80
2022-12-24T18:13:41.936Z,59.80
2022-12-24T18:16:17.278Z,59.70
2022-12-24T18:18:46.548Z,59.70
2022-12-24T18:21:14.793Z,59.70
2022-12-24T18:23:43.077Z,59.70
2022-12-24T18:26:11.348Z,59.60
2022-12-24T18:28:39.297Z,59.60
2022-12-24T18:31:07.985Z,59.60
2022-12-24T18:33:36.163Z,59.60
2022-12-24T18:36:05.773Z,59.60
2022-12-24T18:38:33.668Z,59.50
2022-12-24T18:41:03.891Z,59.50
2022-12-24T18:43:31.797Z,59.50
2022-12-24T18:45:59.756Z,59.50
2022-12-24T18:48:27.654Z,59.50
2022-12-24T18:50:56.568Z,59.50
2022-12-24T18:53:25.788Z,59.50
2022-12-24T18:55:53.653Z,59.50
2022-12-24T18:58:21.611Z,59.50
2022-12-24T19:00:49.598Z,59.50
2022-12-24T19:03:17.553Z,59.50
2022-12-24T19:05:45.421Z,59.40
2022-12-24T19:08:55.233Z,59.40
2022-12-24T19:11:02.644Z,59.40
2022-12-24T19:13:30.507Z,59.30
2022-12-24T19:15:58.385Z,59.30
2022-12-24T19:18:26.279Z,59.30
2022-12-24T19:20:54.171Z,59.30
2022-12-24T19:23:22.067Z,59.30
2022-12-24T19:25:50.193Z,59.20
2022-12-24T19:28:25.603Z,59.20
2022-12-24T19:30:53.793Z,59.20
2022-12-24T19:33:21.677Z,59.20
2022-12-24T19:35:49.613Z,59.20
2022-12-24T19:38:17.501Z,59.10
2022-12-24T19:40:45.372Z,59.10
2022-12-24T19:43:13.266Z,59.00
2022-12-24T19:45:42.554Z,59.00
2022-12-24T19:48:10.443Z,58.80
2022-12-24T19:50:38.324Z,58.80
2022-12-24T19:53:06.234Z,58.80
2022-12-24T19:55:34.123Z,58.80
2022-12-24T19:58:02.022Z,58.80
2022-12-24T20:00:29.909Z,58.70
2022-12-24T20:02:59.274Z,58.70
2022-12-24T20:05:27.439Z,58.70
2022-12-24T20:07:55.321Z,58.70
2022-12-24T20:10:23.236Z,58.70
2022-12-24T20:12:51.112Z,58.70
2022-12-24T20:15:19.067Z,58.70
2022-12-24T20:17:52.000Z,58.70
2022-12-24T20:20:21.262Z,58.70
2022-12-24T20:22:49.165Z,58.60
2022-12-24T20:25:17.198Z,58.60
2022-12-24T20:27:45.035Z,58.60
2022-12-24T20:30:13.663Z,58.60
2022-12-24T20:32:41.510Z,58.60
2022-12-24T20:35:10.044Z,58.60
2022-12-24T20:37:45.496Z,58.60
2022-12-24T20:40:14.117Z,58.60
2022-12-24T20:42:43.099Z,58.60
2022-12-24T20:45:11.096Z,58.50
2022-12-24T20:47:39.196Z,58.50
2022-12-24T20:50:08.545Z,58.50
2022-12-24T20:52:36.448Z,58.50
2022-12-24T20:55:06.327Z,58.50
2022-12-24T20:57:36.523Z,58.60
2022-12-24T21:00:06.069Z,58.40
2022-12-24T21:02:34.169Z,58.40
2022-12-24T21:05:02.901Z,58.50
2022-12-24T21:07:30.885Z,58.40
2022-12-24T21:09:59.323Z,58.40
2022-12-24T21:12:46.075Z,58.40
2022-12-24T21:15:13.959Z,58.40
2022-12-24T21:17:41.893Z,58.30
2022-12-24T21:20:10.543Z,58.30
2022-12-24T21:22:38.412Z,58.30
2022-12-24T21:25:07.271Z,58.30
2022-12-24T21:27:36.543Z,59.30
2022-12-24T21:30:04.500Z,58.30
2022-12-24T21:32:32.374Z,58.30
2022-12-24T21:35:00.214Z,58.30
2022-12-24T21:37:28.077Z,58.30
2022-12-24T21:39:55.960Z,58.30
2022-12-24T21:42:23.866Z,58.30
2022-12-24T21:44:53.074Z,58.20
2022-12-24T21:47:20.951Z,58.20
2022-12-24T21:50:06.308Z,58.20
2022-12-24T21:52:34.172Z,58.20
2022-12-24T21:55:01.063Z,58.10
2022-12-24T21:57:46.386Z,58.10
2022-12-24T22:00:26.867Z,58.20
2022-12-24T22:02:56.461Z,58.10
2022-12-24T22:05:25.990Z,58.10
2022-12-24T22:08:11.611Z,58.10
2022-12-24T22:10:58.568Z,58.00
2022-12-24T22:13:26.719Z,58.00
2022-12-24T22:15:56.008Z,57.90
2022-12-24T22:18:24.683Z,58.00
2022-12-24T22:20:52.753Z,58.00
2022-12-24T22:23:20.842Z,57.90
2022-12-24T22:25:48.744Z,57.90
2022-12-24T22:28:16.687Z,57.90
2022-12-24T22:30:44.627Z,57.80
2022-12-24T22:33:13.996Z,57.70
2022-12-24T22:35:42.192Z,57.70
2022-12-24T22:38:10.271Z,58.70
2022-12-24T22:40:40.155Z,57.60
2022-12-24T22:43:08.034Z,57.60
2022-12-24T22:45:35.905Z,57.50
2022-12-24T22:48:03.820Z,57.50
2022-12-24T22:50:33.010Z,57.50
2022-12-24T22:53:00.858Z,57.50
2022-12-24T22:55:28.699Z,57.40
2022-12-24T22:57:56.540Z,57.40
2022-12-24T23:00:38.680Z,57.50
2022-12-24T23:03:06.748Z,57.50
2022-12-24T23:05:36.198Z,57.40
2022-12-24T23:08:04.270Z,57.40
2022-12-24T23:10:32.260Z,57.40
2022-12-24T23:13:32.232Z,57.40
2022-12-24T23:16:02.922Z,57.40
2022-12-24T23:18:30.900Z,57.40
2022-12-24T23:21:00.163Z,57.40
2022-12-24T23:23:33.300Z,57.40
2022-12-24T23:26:04.817Z,57.40
2022-12-24T23:28:32.726Z,57.40
2022-12-24T23:31:00.850Z,57.40
2022-12-24T23:33:28.970Z,57.40
2022-12-24T23:35:57.191Z,57.30
2022-12-24T23:38:26.500Z,57.50
2022-12-24T23:40:56.262Z,57.50
2022-12-24T23:43:24.283Z,57.40
2022-12-24T23:45:52.252Z,57.40
2022-12-24T23:48:20.344Z,57.40
2022-12-24T23:50:48.311Z,57.30
2022-12-24T23:53:16.630Z,57.30
2022-12-24T23:55:45.887Z,57.30
2022-12-24T23:58:14.466Z,57.40
